sensor_id;sensor_type;location;lat;lon;timestamp;temperature;humidity
72576;DHT22;60613;48.658;2.328;2022-12-05T07:02:36;21.30;32.90
72576;DHT22;60613;48.658;2.328;2022-12-05T07:05:02;21.30;34.00
72576;DHT22;60613;48.658;2.328;2022-12-05T07:07:28;21.30;33.90
72576;DHT22;60613;48.658;2.328;2022-12-05T07:09:54;21.30;33.80
72576;DHT22;60613;48.658;2.328;2022-12-05T07:12:20;21.40;33.70
72576;DHT22;60613;48.658;2.328;2022-12-05T07:14:46;21.40;33.70
72576;DHT22;60613;48.658;2.328;2022-12-05T07:17:12;21.40;33.60
72576;DHT22;60613;48.658;2.328;2022-12-05T07:19:37;21.40;33.60
72576;DHT22;60613;48.658;2.328;2022-12-05T07:22:03;21.50;34.70
72576;DHT22;60613;48.658;2.328;2022-12-05T07:24:29;21.50;33.50
72576;DHT22;60613;48.658;2.328;2022-12-05T07:26:55;21.50;33.50
72576;DHT22;60613;48.658;2.328;2022-12-05T07:29:21;21.50;33.50
72576;DHT22;60613;48.658;2.328;2022-12-05T07:31:46;21.50;33.50
72576;DHT22;60613;48.658;2.328;2022-12-05T07:34:12;21.50;33.30
72576;DHT22;60613;48.658;2.328;2022-12-05T07:36:38;21.60;33.40
72576;DHT22;60613;48.658;2.328;2022-12-05T07:39:03;21.60;33.40
72576;DHT22;60613;48.658;2.328;2022-12-05T07:41:31;21.60;33.30
72576;DHT22;60613;48.658;2.328;2022-12-05T07:43:58;21.60;33.30
72576;DHT22;60613;48.658;2.328;2022-12-05T07:46:25;21.60;33.30
72576;DHT22;60613;48.658;2.328;2022-12-05T07:48:52;21.60;33.30
72576;DHT22;60613;48.658;2.328;2022-12-05T07:51:18;21.60;33.30
72576;DHT22;60613;48.658;2.328;2022-12-05T07:53:44;21.60;33.20
72576;DHT22;60613;48.658;2.328;2022-12-05T07:56:12;21.60;33.30
72576;DHT22;60613;48.658;2.328;2022-12-05T08:01:22;21.60;33.40
72576;DHT22;60613;48.658;2.328;2022-12-05T08:03:48;21.60;33.30
72576;DHT22;60613;48.658;2.328;2022-12-05T08:06:15;21.60;33.30
72576;DHT22;60613;48.658;2.328;2022-12-05T08:08:42;21.60;33.30
72576;DHT22;60613;48.658;2.328;2022-12-05T08:11:16;21.60;33.30
72576;DHT22;60613;48.658;2.328;2022-12-05T08:13:43;21.50;29.60
72576;DHT22;60613;48.658;2.328;2022-12-05T08:16:11;20.60;29.20
72576;DHT22;60613;48.658;2.328;2022-12-05T08:18:37;19.80;30.10
72576;DHT22;60613;48.658;2.328;2022-12-05T08:21:07;19.00;31.30
72576;DHT22;60613;48.658;2.328;2022-12-05T08:23:34;18.50;32.60
72576;DHT22;60613;48.658;2.328;2022-12-05T08:26:14;17.80;33.80
72576;DHT22;60613;48.658;2.328;2022-12-05T08:28:41;17.40;34.60
72576;DHT22;60613;48.658;2.328;2022-12-05T08:31:15;17.10;35.30
72576;DHT22;60613;48.658;2.328;2022-12-05T08:33:42;16.80;36.30
72576;DHT22;60613;48.658;2.328;2022-12-05T08:36:11;16.60;36.80
72576;DHT22;60613;48.658;2.328;2022-12-05T08:38:38;16.40;37.10
72576;DHT22;60613;48.658;2.328;2022-12-05T08:41:06;16.20;37.60
72576;DHT22;60613;48.658;2.328;2022-12-05T08:43:32;16.10;38.50
72576;DHT22;60613;48.658;2.328;2022-12-05T08:45:58;16.70;41.50
72576;DHT22;60613;48.658;2.328;2022-12-05T08:48:25;17.30;40.70
72576;DHT22;60613;48.658;2.328;2022-12-05T08:50:51;17.90;39.90
72576;DHT22;60613;48.658;2.328;2022-12-05T08:53:16;18.30;39.30
72576;DHT22;60613;48.658;2.328;2022-12-05T08:55:42;18.70;39.90
72576;DHT22;60613;48.658;2.328;2022-12-05T08:58:10;18.90;38.10
72576;DHT22;60613;48.658;2.328;2022-12-05T09:00:36;19.10;38.10
72576;DHT22;60613;48.658;2.328;2022-12-05T09:03:01;19.30;37.20
72576;DHT22;60613;48.658;2.328;2022-12-05T09:05:27;19.30;36.70
72576;DHT22;60613;48.658;2.328;2022-12-05T09:07:53;19.40;36.40
72576;DHT22;60613;48.658;2.328;2022-12-05T09:10:19;19.50;36.30
72576;DHT22;60613;48.658;2.328;2022-12-05T09:12:44;19.50;36.30
72576;DHT22;60613;48.658;2.328;2022-12-05T09:15:11;19.60;36.90
72576;DHT22;60613;48.658;2.328;2022-12-05T09:17:37;19.70;36.90
72576;DHT22;60613;48.658;2.328;2022-12-05T09:20:04;19.80;36.80
72576;DHT22;60613;48.658;2.328;2022-12-05T09:22:30;19.80;36.50
72576;DHT22;60613;48.658;2.328;2022-12-05T09:24:56;19.90;36.20
72576;DHT22;60613;48.658;2.328;2022-12-05T09:27:21;20.00;36.20
72576;DHT22;60613;48.658;2.328;2022-12-05T09:29:47;20.00;36.20
72576;DHT22;60613;48.658;2.328;2022-12-05T09:32:13;20.10;37.60
72576;DHT22;60613;48.658;2.328;2022-12-05T09:34:39;20.20;38.50
72576;DHT22;60613;48.658;2.328;2022-12-05T09:37:05;20.30;38.30
72576;DHT22;60613;48.658;2.328;2022-12-05T09:39:32;20.30;38.80
72576;DHT22;60613;48.658;2.328;2022-12-05T09:48:13;20.50;37.70
72576;DHT22;60613;48.658;2.328;2022-12-05T09:50:49;20.60;37.60
72576;DHT22;60613;48.658;2.328;2022-12-05T09:53:27;20.70;37.50
72576;DHT22;60613;48.658;2.328;2022-12-05T09:58:58;20.70;37.00
72576;DHT22;60613;48.658;2.328;2022-12-05T10:04:23;20.70;36.60
72576;DHT22;60613;48.658;2.328;2022-12-05T10:12:14;20.70;36.20
72576;DHT22;60613;48.658;2.328;2022-12-05T10:17:42;20.70;36.10
72576;DHT22;60613;48.658;2.328;2022-12-05T10:20:18;20.80;35.90
72576;DHT22;60613;48.658;2.328;2022-12-05T10:22:49;20.80;35.90
72576;DHT22;60613;48.658;2.328;2022-12-05T10:25:19;20.80;36.00
72576;DHT22;60613;48.658;2.328;2022-12-05T10:27:59;20.80;35.90
72576;DHT22;60613;48.658;2.328;2022-12-05T10:30:33;20.90;36.00
72576;DHT22;60613;48.658;2.328;2022-12-05T10:33:13;20.90;36.10
72576;DHT22;60613;48.658;2.328;2022-12-05T10:35:40;20.90;36.30
72576;DHT22;60613;48.658;2.328;2022-12-05T10:40:41;20.90;36.00
72576;DHT22;60613;48.658;2.328;2022-12-05T10:43:13;20.90;36.10
72576;DHT22;60613;48.658;2.328;2022-12-05T10:45:43;20.90;36.20
72576;DHT22;60613;48.658;2.328;2022-12-05T10:48:15;20.90;36.20
72576;DHT22;60613;48.658;2.328;2022-12-05T10:50:42;21.00;37.20
72576;DHT22;60613;48.658;2.328;2022-12-05T10:53:16;21.00;36.10
72576;DHT22;60613;48.658;2.328;2022-12-05T10:55:45;21.00;36.00
72576;DHT22;60613;48.658;2.328;2022-12-05T11:00:40;21.00;35.90
72576;DHT22;60613;48.658;2.328;2022-12-05T11:03:29;21.00;35.80
72576;DHT22;60613;48.658;2.328;2022-12-05T11:06:02;21.00;35.50
72576;DHT22;60613;48.658;2.328;2022-12-05T11:08:38;21.00;35.50
72576;DHT22;60613;48.658;2.328;2022-12-05T11:13:58;21.00;35.40
72576;DHT22;60613;48.658;2.328;2022-12-05T11:16:27;21.00;35.50
72576;DHT22;60613;48.658;2.328;2022-12-05T11:18:53;21.10;35.40
72576;DHT22;60613;48.658;2.328;2022-12-05T11:21:19;21.10;35.60
72576;DHT22;60613;48.658;2.328;2022-12-05T11:23:46;21.10;35.50
72576;DHT22;60613;48.658;2.328;2022-12-05T11:26:36;21.10;35.40
72576;DHT22;60613;48.658;2.328;2022-12-05T11:29:03;21.10;35.50
72576;DHT22;60613;48.658;2.328;2022-12-05T11:31:30;21.10;35.60
72576;DHT22;60613;48.658;2.328;2022-12-05T11:34:22;21.20;35.30
72576;DHT22;60613;48.658;2.328;2022-12-05T11:37:04;21.20;35.40
72576;DHT22;60613;48.658;2.328;2022-12-05T11:39:31;21.20;35.10
72576;DHT22;60613;48.658;2.328;2022-12-05T11:42:18;21.20;35.10
72576;DHT22;60613;48.658;2.328;2022-12-05T11:56:03;21.30;34.60
72576;DHT22;60613;48.658;2.328;2022-12-05T12:04:49;21.30;35.00
72576;DHT22;60613;48.658;2.328;2022-12-05T12:10:32;21.30;34.90
72576;DHT22;60613;48.658;2.328;2022-12-05T12:13:26;21.30;35.00
72576;DHT22;60613;48.658;2.328;2022-12-05T12:27:14;21.50;34.60
72576;DHT22;60613;48.658;2.328;2022-12-05T12:30:04;21.50;34.70
72576;DHT22;60613;48.658;2.328;2022-12-05T12:35:25;21.60;35.10
72576;DHT22;60613;48.658;2.328;2022-12-05T12:46:58;21.70;36.10
72576;DHT22;60613;48.658;2.328;2022-12-05T12:49:47;21.80;35.70
72576;DHT22;60613;48.658;2.328;2022-12-05T12:52:17;21.90;35.70
72576;DHT22;60613;48.658;2.328;2022-12-05T13:02:43;21.90;34.80
72576;DHT22;60613;48.658;2.328;2022-12-05T13:05:47;21.90;35.00
72576;DHT22;60613;48.658;2.328;2022-12-05T13:08:31;21.90;34.50
72576;DHT22;60613;48.658;2.328;2022-12-05T13:10:59;21.90;34.40
72576;DHT22;60613;48.658;2.328;2022-12-05T13:13:31;21.90;34.20
72576;DHT22;60613;48.658;2.328;2022-12-05T13:16:00;21.90;34.00
72576;DHT22;60613;48.658;2.328;2022-12-05T13:18:28;22.00;34.20
72576;DHT22;60613;48.658;2.328;2022-12-05T13:20:57;22.00;34.10
72576;DHT22;60613;48.658;2.328;2022-12-05T13:23:26;22.00;34.20
72576;DHT22;60613;48.658;2.328;2022-12-05T13:25:54;22.00;34.30
72576;DHT22;60613;48.658;2.328;2022-12-05T13:28:28;22.00;34.60
72576;DHT22;60613;48.658;2.328;2022-12-05T13:30:55;22.00;34.30
72576;DHT22;60613;48.658;2.328;2022-12-05T13:33:35;22.10;34.60
72576;DHT22;60613;48.658;2.328;2022-12-05T13:36:10;22.10;34.80
72576;DHT22;60613;48.658;2.328;2022-12-05T13:39:06;22.00;34.70
72576;DHT22;60613;48.658;2.328;2022-12-05T13:41:55;22.00;34.70
72576;DHT22;60613;48.658;2.328;2022-12-05T13:44:40;22.10;34.60
72576;DHT22;60613;48.658;2.328;2022-12-05T13:50:41;22.10;34.50
72576;DHT22;60613;48.658;2.328;2022-12-05T13:53:04;22.20;34.00
72576;DHT22;60613;48.658;2.328;2022-12-05T13:55:52;22.10;33.80
72576;DHT22;60613;48.658;2.328;2022-12-05T14:00:44;22.10;33.70
72576;DHT22;60613;48.658;2.328;2022-12-05T14:06:02;22.10;33.60
72576;DHT22;60613;48.658;2.328;2022-12-05T14:15:52;22.10;33.60
72576;DHT22;60613;48.658;2.328;2022-12-05T14:18:46;22.00;33.50
72576;DHT22;60613;48.658;2.328;2022-12-05T14:24:24;22.00;33.50
72576;DHT22;60613;48.658;2.328;2022-12-05T14:32:22;22.10;33.50
72576;DHT22;60613;48.658;2.328;2022-12-05T14:35:15;22.00;33.40
72576;DHT22;60613;48.658;2.328;2022-12-05T14:37:56;22.00;33.40
72576;DHT22;60613;48.658;2.328;2022-12-05T14:45:37;22.10;33.50
72576;DHT22;60613;48.658;2.328;2022-12-05T14:56:12;22.00;33.30
72576;DHT22;60613;48.658;2.328;2022-12-05T14:58:50;22.10;33.40
72576;DHT22;60613;48.658;2.328;2022-12-05T15:06:54;22.00;33.30
72576;DHT22;60613;48.658;2.328;2022-12-05T15:12:43;22.10;33.40
72576;DHT22;60613;48.658;2.328;2022-12-05T15:17:47;22.10;33.30
72576;DHT22;60613;48.658;2.328;2022-12-05T15:23:36;22.10;33.30
72576;DHT22;60613;48.658;2.328;2022-12-05T15:26:02;22.10;33.30
72576;DHT22;60613;48.658;2.328;2022-12-05T15:28:28;22.10;33.20
72576;DHT22;60613;48.658;2.328;2022-12-05T15:30:55;22.10;33.20
72576;DHT22;60613;48.658;2.328;2022-12-05T15:33:22;22.10;33.30
72576;DHT22;60613;48.658;2.328;2022-12-05T15:35:49;22.10;33.30
72576;DHT22;60613;48.658;2.328;2022-12-05T15:38:20;22.10;33.10
72576;DHT22;60613;48.658;2.328;2022-12-05T15:40:47;22.20;33.40
72576;DHT22;60613;48.658;2.328;2022-12-05T15:43:31;22.10;33.20
72576;DHT22;60613;48.658;2.328;2022-12-05T15:46:20;22.10;33.10
72576;DHT22;60613;48.658;2.328;2022-12-05T15:48:58;22.10;33.30
72576;DHT22;60613;48.658;2.328;2022-12-05T15:51:34;22.10;33.10
72576;DHT22;60613;48.658;2.328;2022-12-05T15:54:21;22.20;33.30
72576;DHT22;60613;48.658;2.328;2022-12-05T15:57:03;22.10;33.10
72576;DHT22;60613;48.658;2.328;2022-12-05T15:59:41;22.10;33.20
72576;DHT22;60613;48.658;2.328;2022-12-05T16:02:27;22.10;33.10
72576;DHT22;60613;48.658;2.328;2022-12-05T16:04:56;22.10;33.10
72576;DHT22;60613;48.658;2.328;2022-12-05T16:07:24;22.10;33.60
72576;DHT22;60613;48.658;2.328;2022-12-05T16:09:54;22.10;33.10
72576;DHT22;60613;48.658;2.328;2022-12-05T16:12:41;22.10;33.00
72576;DHT22;60613;48.658;2.328;2022-12-05T16:15:19;22.10;33.20
72576;DHT22;60613;48.658;2.328;2022-12-05T16:17:51;22.10;33.20
72576;DHT22;60613;48.658;2.328;2022-12-05T16:22:51;22.10;33.30
72576;DHT22;60613;48.658;2.328;2022-12-05T16:25:25;22.20;33.00
72576;DHT22;60613;48.658;2.328;2022-12-05T16:30:33;22.10;33.20
72576;DHT22;60613;48.658;2.328;2022-12-05T16:33:22;22.10;33.20
72576;DHT22;60613;48.658;2.328;2022-12-05T16:35:47;22.10;33.10
72576;DHT22;60613;48.658;2.328;2022-12-05T16:40:53;22.10;33.20
72576;DHT22;60613;48.658;2.328;2022-12-05T16:48:33;22.10;33.10
72576;DHT22;60613;48.658;2.328;2022-12-05T16:51:23;22.20;32.60
72576;DHT22;60613;48.658;2.328;2022-12-05T16:53:51;22.20;32.80
72576;DHT22;60613;48.658;2.328;2022-12-05T16:56:24;22.10;33.10
72576;DHT22;60613;48.658;2.328;2022-12-05T16:58:50;22.10;32.90
72576;DHT22;60613;48.658;2.328;2022-12-05T17:01:24;22.20;32.80
72576;DHT22;60613;48.658;2.328;2022-12-05T17:03:52;22.10;32.90
72576;DHT22;60613;48.658;2.328;2022-12-05T17:06:18;22.20;33.00
72576;DHT22;60613;48.658;2.328;2022-12-05T17:08:46;22.10;33.70
72576;DHT22;60613;48.658;2.328;2022-12-05T17:11:32;22.10;34.70
72576;DHT22;60613;48.658;2.328;2022-12-05T17:13:59;22.20;34.00
72576;DHT22;60613;48.658;2.328;2022-12-05T17:16:26;22.20;34.10
72576;DHT22;60613;48.658;2.328;2022-12-05T17:18:52;22.30;34.40
72576;DHT22;60613;48.658;2.328;2022-12-05T17:21:22;22.30;34.20
72576;DHT22;60613;48.658;2.328;2022-12-05T17:23:50;22.30;34.20
72576;DHT22;60613;48.658;2.328;2022-12-05T17:26:18;22.30;34.20
72576;DHT22;60613;48.658;2.328;2022-12-05T17:28:45;22.30;34.00
72576;DHT22;60613;48.658;2.328;2022-12-05T17:31:18;22.30;34.00
72576;DHT22;60613;48.658;2.328;2022-12-05T17:33:45;22.40;33.90
72576;DHT22;60613;48.658;2.328;2022-12-05T17:36:11;22.40;33.90
72576;DHT22;60613;48.658;2.328;2022-12-05T17:38:37;22.40;33.90
72576;DHT22;60613;48.658;2.328;2022-12-05T17:41:03;22.40;33.70
72576;DHT22;60613;48.658;2.328;2022-12-05T17:43:29;22.40;33.60
72576;DHT22;60613;48.658;2.328;2022-12-05T17:45:55;22.40;33.60
72576;DHT22;60613;48.658;2.328;2022-12-05T17:48:23;22.40;33.70
72576;DHT22;60613;48.658;2.328;2022-12-05T17:50:51;22.40;33.70
72576;DHT22;60613;48.658;2.328;2022-12-05T17:53:19;22.40;33.60
72576;DHT22;60613;48.658;2.328;2022-12-05T17:55:45;22.40;33.70
72576;DHT22;60613;48.658;2.328;2022-12-05T17:58:15;22.40;33.60
72576;DHT22;60613;48.658;2.328;2022-12-05T18:00:42;22.40;33.60
72576;DHT22;60613;48.658;2.328;2022-12-05T18:03:12;22.40;33.80
72576;DHT22;60613;48.658;2.328;2022-12-05T18:05:38;22.40;33.60
72576;DHT22;60613;48.658;2.328;2022-12-05T18:08:04;22.50;33.50
72576;DHT22;60613;48.658;2.328;2022-12-05T18:10:30;22.50;33.50
72576;DHT22;60613;48.658;2.328;2022-12-05T18:12:55;22.50;33.40
72576;DHT22;60613;48.658;2.328;2022-12-05T18:15:21;22.50;33.40
72576;DHT22;60613;48.658;2.328;2022-12-05T18:17:47;22.50;33.40
72576;DHT22;60613;48.658;2.328;2022-12-05T18:20:14;22.50;33.40
72576;DHT22;60613;48.658;2.328;2022-12-05T18:22:40;22.50;33.40
72576;DHT22;60613;48.658;2.328;2022-12-05T18:25:06;22.50;33.90
72576;DHT22;60613;48.658;2.328;2022-12-05T18:27:36;22.50;33.40
72576;DHT22;60613;48.658;2.328;2022-12-05T18:30:04;22.50;33.70
72576;DHT22;60613;48.658;2.328;2022-12-05T18:32:30;22.40;33.70
72576;DHT22;60613;48.658;2.328;2022-12-05T18:34:56;22.50;33.60
72576;DHT22;60613;48.658;2.328;2022-12-05T18:37:24;22.40;33.80
72576;DHT22;60613;48.658;2.328;2022-12-05T18:39:53;22.40;33.70
72576;DHT22;60613;48.658;2.328;2022-12-05T18:42:19;22.40;33.60
72576;DHT22;60613;48.658;2.328;2022-12-05T18:44:45;22.40;33.60
72576;DHT22;60613;48.658;2.328;2022-12-05T18:47:16;22.40;33.50
72576;DHT22;60613;48.658;2.328;2022-12-05T18:49:42;22.40;33.50
72576;DHT22;60613;48.658;2.328;2022-12-05T18:52:08;22.40;33.50
72576;DHT22;60613;48.658;2.328;2022-12-05T18:54:33;22.40;33.50
72576;DHT22;60613;48.658;2.328;2022-12-05T18:56:59;22.30;33.50
72576;DHT22;60613;48.658;2.328;2022-12-05T18:59:24;22.30;33.50
72576;DHT22;60613;48.658;2.328;2022-12-05T19:01:50;22.30;33.60
72576;DHT22;60613;48.658;2.328;2022-12-05T19:04:18;22.30;33.50
72576;DHT22;60613;48.658;2.328;2022-12-05T19:06:54;22.30;33.50
72576;DHT22;60613;48.658;2.328;2022-12-05T19:09:22;22.30;33.60
72576;DHT22;60613;48.658;2.328;2022-12-05T19:11:51;22.20;33.80
72576;DHT22;60613;48.658;2.328;2022-12-05T19:14:19;22.20;33.60
72576;DHT22;60613;48.658;2.328;2022-12-05T19:16:47;22.20;33.60
72576;DHT22;60613;48.658;2.328;2022-12-05T19:19:13;22.30;33.90
72576;DHT22;60613;48.658;2.328;2022-12-05T19:21:40;22.20;33.70
72576;DHT22;60613;48.658;2.328;2022-12-05T19:24:07;22.20;33.60
72576;DHT22;60613;48.658;2.328;2022-12-05T19:26:33;22.20;33.70
72576;DHT22;60613;48.658;2.328;2022-12-05T19:28:59;22.20;33.70
72576;DHT22;60613;48.658;2.328;2022-12-05T19:31:27;22.20;33.80
72576;DHT22;60613;48.658;2.328;2022-12-05T19:33:56;22.20;33.80
72576;DHT22;60613;48.658;2.328;2022-12-05T19:36:28;22.20;33.60
72576;DHT22;60613;48.658;2.328;2022-12-05T19:39:00;22.20;33.80
72576;DHT22;60613;48.658;2.328;2022-12-05T19:41:30;22.20;33.70
72576;DHT22;60613;48.658;2.328;2022-12-05T19:44:00;22.20;33.70
72576;DHT22;60613;48.658;2.328;2022-12-05T19:46:28;22.20;33.40
72576;DHT22;60613;48.658;2.328;2022-12-05T19:49:09;22.20;33.60
72576;DHT22;60613;48.658;2.328;2022-12-05T19:51:38;22.20;33.60
72576;DHT22;60613;48.658;2.328;2022-12-05T19:54:05;22.20;33.40
72576;DHT22;60613;48.658;2.328;2022-12-05T19:56:32;22.20;33.50
72576;DHT22;60613;48.658;2.328;2022-12-05T19:58:59;22.30;33.40
72576;DHT22;60613;48.658;2.328;2022-12-05T20:01:36;22.30;33.20
72576;DHT22;60613;48.658;2.328;2022-12-05T20:04:05;22.20;33.10
72576;DHT22;60613;48.658;2.328;2022-12-05T20:06:42;22.20;33.20
72576;DHT22;60613;48.658;2.328;2022-12-05T20:09:12;22.20;33.20
72576;DHT22;60613;48.658;2.328;2022-12-05T20:11:41;22.10;34.50
72576;DHT22;60613;48.658;2.328;2022-12-05T20:14:11;22.10;33.30
72576;DHT22;60613;48.658;2.328;2022-12-05T20:16:38;22.10;33.30
72576;DHT22;60613;48.658;2.328;2022-12-05T20:19:22;22.10;33.30
72576;DHT22;60613;48.658;2.328;2022-12-05T20:21:51;22.10;33.40
72576;DHT22;60613;48.658;2.328;2022-12-05T20:24:20;22.10;33.30
72576;DHT22;60613;48.658;2.328;2022-12-05T20:26:48;22.10;33.30
72576;DHT22;60613;48.658;2.328;2022-12-05T20:29:14;22.10;33.40
72576;DHT22;60613;48.658;2.328;2022-12-05T20:31:41;22.10;33.30
72576;DHT22;60613;48.658;2.328;2022-12-05T20:36:43;22.10;33.30
72576;DHT22;60613;48.658;2.328;2022-12-05T20:39:14;22.10;33.30
72576;DHT22;60613;48.658;2.328;2022-12-05T20:41:41;22.10;33.40
72576;DHT22;60613;48.658;2.328;2022-12-05T20:44:09;22.10;33.30
72576;DHT22;60613;48.658;2.328;2022-12-05T20:46:36;22.10;33.30
72576;DHT22;60613;48.658;2.328;2022-12-05T20:49:02;22.10;33.30
72576;DHT22;60613;48.658;2.328;2022-12-05T20:51:30;22.20;33.30
72576;DHT22;60613;48.658;2.328;2022-12-05T20:54:01;22.10;33.20
72576;DHT22;60613;48.658;2.328;2022-12-05T20:56:29;22.20;33.40
72576;DHT22;60613;48.658;2.328;2022-12-05T20:58:57;22.10;33.30
72576;DHT22;60613;48.658;2.328;2022-12-05T21:01:25;22.10;33.30
72576;DHT22;60613;48.658;2.328;2022-12-05T21:03:51;22.10;33.50
72576;DHT22;60613;48.658;2.328;2022-12-05T21:06:25;22.10;33.50
72576;DHT22;60613;48.658;2.328;2022-12-05T21:08:52;22.10;33.50
72576;DHT22;60613;48.658;2.328;2022-12-05T21:11:18;22.10;33.40
72576;DHT22;60613;48.658;2.328;2022-12-05T21:13:44;22.10;33.40
72576;DHT22;60613;48.658;2.328;2022-12-05T21:16:12;22.10;33.50
72576;DHT22;60613;48.658;2.328;2022-12-05T21:18:39;22.10;33.50
72576;DHT22;60613;48.658;2.328;2022-12-05T21:21:07;22.10;33.50
72576;DHT22;60613;48.658;2.328;2022-12-05T21:23:33;22.10;33.40
72576;DHT22;60613;48.658;2.328;2022-12-05T21:26:04;22.10;33.50
72576;DHT22;60613;48.658;2.328;2022-12-05T21:28:32;22.10;33.50
72576;DHT22;60613;48.658;2.328;2022-12-05T21:31:19;22.10;33.40
72576;DHT22;60613;48.658;2.328;2022-12-05T21:33:56;22.10;33.50
72576;DHT22;60613;48.658;2.328;2022-12-05T21:36:23;22.10;33.60
72576;DHT22;60613;48.658;2.328;2022-12-05T21:38:49;22.10;33.40
72576;DHT22;60613;48.658;2.328;2022-12-05T21:41:15;22.10;33.30
72576;DHT22;60613;48.658;2.328;2022-12-05T21:43:40;22.10;33.50
72576;DHT22;60613;48.658;2.328;2022-12-05T21:46:06;22.10;33.50
72576;DHT22;60613;48.658;2.328;2022-12-05T21:48:33;22.00;33.40
72576;DHT22;60613;48.658;2.328;2022-12-05T21:50:59;22.00;33.40
72576;DHT22;60613;48.658;2.328;2022-12-05T21:53:25;22.00;33.50
72576;DHT22;60613;48.658;2.328;2022-12-05T21:55:59;22.10;33.50
72576;DHT22;60613;48.658;2.328;2022-12-05T21:58:24;22.00;33.30
